sensor_id;sensor_type;location;lat;lon;timestamp;P1;durP1;ratioP1;P2;durP2;ratioP2
7693;SDS011;3889;48.162;11.510;2022-08-01T00:00:49;3.00;;;2.22;;
7693;SDS011;3889;48.162;11.510;2022-08-01T00:03:17;2.33;;;2.13;;
7693;SDS011;3889;48.162;11.510;2022-08-01T00:05:46;2.40;;;2.20;;
7693;SDS011;3889;48.162;11.510;2022-08-01T00:08:15;2.30;;;2.08;;
7693;SDS011;3889;48.162;11.510;2022-08-01T00:10:42;2.80;;;1.80;;
7693;SDS011;3889;48.162;11.510;2022-08-01T00:13:10;2.10;;;1.92;;
7693;SDS011;3889;48.162;11.510;2022-08-01T00:15:38;1.98;;;1.80;;
7693;SDS011;3889;48.162;11.510;2022-08-01T00:18:17;2.20;;;2.00;;
7693;SDS011;3889;48.162;11.510;2022-08-01T00:20:44;2.63;;;2.25;;
7693;SDS011;3889;48.162;11.510;2022-08-01T00:23:14;2.88;;;2.10;;
7693;SDS011;3889;48.162;11.510;2022-08-01T00:25:41;2.47;;;2.03;;
7693;SDS011;3889;48.162;11.510;2022-08-01T00:28:10;2.80;;;2.10;;
7693;SDS011;3889;48.162;11.510;2022-08-01T00:30:39;2.72;;;2.17;;
7693;SDS011;3889;48.162;11.510;2022-08-01T00:33:07;2.50;;;2.30;;
7693;SDS011;3889;48.162;11.510;2022-08-01T00:35:35;2.10;;;2.00;;
7693;SDS011;3889;48.162;11.510;2022-08-01T00:38:04;2.10;;;1.90;;
7693;SDS011;3889;48.162;11.510;2022-08-01T00:40:32;2.55;;;2.00;;
7693;SDS011;3889;48.162;11.510;2022-08-01T00:43:00;3.10;;;2.00;;
7693;SDS011;3889;48.162;11.510;2022-08-01T00:45:28;2.47;;;2.15;;
7693;SDS011;3889;48.162;11.510;2022-08-01T00:47:56;2.20;;;2.05;;
7693;SDS011;3889;48.162;11.510;2022-08-01T00:50:24;2.63;;;2.03;;
7693;SDS011;3889;48.162;11.510;2022-08-01T00:52:52;3.88;;;2.30;;
7693;SDS011;3889;48.162;11.510;2022-08-01T00:55:23;2.42;;;2.20;;
7693;SDS011;3889;48.162;11.510;2022-08-01T00:57:51;2.25;;;2.00;;
7693;SDS011;3889;48.162;11.510;2022-08-01T01:00:29;3.60;;;2.03;;
7693;SDS011;3889;48.162;11.510;2022-08-01T01:03:00;2.40;;;1.90;;
7693;SDS011;3889;48.162;11.510;2022-08-01T01:05:28;2.40;;;2.00;;
7693;SDS011;3889;48.162;11.510;2022-08-01T01:08:04;3.25;;;2.10;;
7693;SDS011;3889;48.162;11.510;2022-08-01T01:10:39;3.03;;;2.40;;
7693;SDS011;3889;48.162;11.510;2022-08-01T01:13:15;2.17;;;1.98;;
7693;SDS011;3889;48.162;11.510;2022-08-01T01:15:51;2.90;;;2.20;;
7693;SDS011;3889;48.162;11.510;2022-08-01T01:18:25;3.95;;;2.10;;
7693;SDS011;3889;48.162;11.510;2022-08-01T01:21:00;2.28;;;2.08;;
7693;SDS011;3889;48.162;11.510;2022-08-01T01:23:39;3.00;;;2.17;;
7693;SDS011;3889;48.162;11.510;2022-08-01T01:26:26;2.00;;;1.90;;
7693;SDS011;3889;48.162;11.510;2022-08-01T01:29:06;2.85;;;1.90;;
7693;SDS011;3889;48.162;11.510;2022-08-01T01:31:42;2.20;;;2.00;;
7693;SDS011;3889;48.162;11.510;2022-08-01T01:34:13;2.55;;;1.98;;
7693;SDS011;3889;48.162;11.510;2022-08-01T01:36:44;2.95;;;2.03;;
7693;SDS011;3889;48.162;11.510;2022-08-01T01:39:14;2.38;;;2.10;;
7693;SDS011;3889;48.162;11.510;2022-08-01T01:41:43;2.28;;;2.08;;
7693;SDS011;3889;48.162;11.510;2022-08-01T01:44:14;2.20;;;2.00;;
7693;SDS011;3889;48.162;11.510;2022-08-01T01:46:43;2.38;;;2.13;;
7693;SDS011;3889;48.162;11.510;2022-08-01T01:49:12;2.40;;;2.05;;
7693;SDS011;3889;48.162;11.510;2022-08-01T01:51:41;2.30;;;2.08;;
7693;SDS011;3889;48.162;11.510;2022-08-01T01:54:28;2.63;;;2.00;;
7693;SDS011;3889;48.162;11.510;2022-08-01T01:57:00;2.40;;;2.20;;
7693;SDS011;3889;48.162;11.510;2022-08-01T01:59:32;5.53;;;2.57;;
7693;SDS011;3889;48.162;11.510;2022-08-01T02:02:02;3.28;;;2.08;;
7693;SDS011;3889;48.162;11.510;2022-08-01T02:04:33;2.28;;;1.95;;
7693;SDS011;3889;48.162;11.510;2022-08-01T02:07:03;2.50;;;2.20;;
7693;SDS011;3889;48.162;11.510;2022-08-01T02:09:35;2.22;;;2.00;;
7693;SDS011;3889;48.162;11.510;2022-08-01T02:12:04;2.80;;;2.10;;
7693;SDS011;3889;48.162;11.510;2022-08-01T02:14:36;2.20;;;2.00;;
7693;SDS011;3889;48.162;11.510;2022-08-01T02:17:06;2.57;;;2.23;;
7693;SDS011;3889;48.162;11.510;2022-08-01T02:19:36;2.47;;;2.28;;
7693;SDS011;3889;48.162;11.510;2022-08-01T02:22:05;2.30;;;2.10;;
7693;SDS011;3889;48.162;11.510;2022-08-01T02:24:39;2.80;;;2.50;;
7693;SDS011;3889;48.162;11.510;2022-08-01T02:27:10;3.17;;;2.22;;
7693;SDS011;3889;48.162;11.510;2022-08-01T02:29:43;2.88;;;2.40;;
7693;SDS011;3889;48.162;11.510;2022-08-01T02:32:23;3.10;;;2.37;;
7693;SDS011;3889;48.162;11.510;2022-08-01T02:34:54;2.38;;;2.17;;
7693;SDS011;3889;48.162;11.510;2022-08-01T02:37:24;2.58;;;2.20;;
7693;SDS011;3889;48.162;11.510;2022-08-01T02:39:56;2.90;;;2.40;;
7693;SDS011;3889;48.162;11.510;2022-08-01T02:42:25;2.57;;;2.37;;
7693;SDS011;3889;48.162;11.510;2022-08-01T02:44:57;2.93;;;2.20;;
7693;SDS011;3889;48.162;11.510;2022-08-01T02:47:25;2.53;;;2.33;;
7693;SDS011;3889;48.162;11.510;2022-08-01T02:49:56;3.30;;;2.20;;
7693;SDS011;3889;48.162;11.510;2022-08-01T02:52:25;3.10;;;2.30;;
7693;SDS011;3889;48.162;11.510;2022-08-01T02:54:55;2.60;;;2.40;;
7693;SDS011;3889;48.162;11.510;2022-08-01T02:57:24;3.08;;;2.17;;
7693;SDS011;3889;48.162;11.510;2022-08-01T03:00:16;2.50;;;2.28;;
7693;SDS011;3889;48.162;11.510;2022-08-01T03:02:45;2.70;;;2.40;;
7693;SDS011;3889;48.162;11.510;2022-08-01T03:05:16;2.20;;;2.00;;
7693;SDS011;3889;48.162;11.510;2022-08-01T03:07:44;2.17;;;1.98;;
7693;SDS011;3889;48.162;11.510;2022-08-01T03:10:14;2.55;;;2.13;;
7693;SDS011;3889;48.162;11.510;2022-08-01T03:12:43;2.92;;;2.13;;
7693;SDS011;3889;48.162;11.510;2022-08-01T03:15:13;2.40;;;2.20;;
7693;SDS011;3889;48.162;11.510;2022-08-01T03:17:44;2.42;;;2.22;;
7693;SDS011;3889;48.162;11.510;2022-08-01T03:20:14;2.95;;;2.40;;
7693;SDS011;3889;48.162;11.510;2022-08-01T03:22:43;2.50;;;2.20;;
7693;SDS011;3889;48.162;11.510;2022-08-01T03:25:13;2.20;;;2.00;;
7693;SDS011;3889;48.162;11.510;2022-08-01T03:27:43;2.67;;;2.10;;
7693;SDS011;3889;48.162;11.510;2022-08-01T03:30:16;2.60;;;2.40;;
7693;SDS011;3889;48.162;11.510;2022-08-01T03:32:45;3.10;;;2.42;;
7693;SDS011;3889;48.162;11.510;2022-08-01T03:35:12;4.32;;;2.35;;
7693;SDS011;3889;48.162;11.510;2022-08-01T03:37:41;3.92;;;2.45;;
7693;SDS011;3889;48.162;11.510;2022-08-01T03:40:33;2.38;;;2.10;;
7693;SDS011;3889;48.162;11.510;2022-08-01T03:43:05;3.55;;;2.60;;
7693;SDS011;3889;48.162;11.510;2022-08-01T03:45:38;3.53;;;2.20;;
7693;SDS011;3889;48.162;11.510;2022-08-01T03:48:08;2.33;;;2.13;;
7693;SDS011;3889;48.162;11.510;2022-08-01T03:50:39;3.38;;;2.30;;
7693;SDS011;3889;48.162;11.510;2022-08-01T03:53:10;2.40;;;2.20;;
7693;SDS011;3889;48.162;11.510;2022-08-01T03:55:39;3.00;;;2.20;;
7693;SDS011;3889;48.162;11.510;2022-08-01T03:58:09;3.22;;;2.42;;
7693;SDS011;3889;48.162;11.510;2022-08-01T04:00:40;2.55;;;2.28;;
7693;SDS011;3889;48.162;11.510;2022-08-01T04:03:09;3.13;;;2.53;;
7693;SDS011;3889;48.162;11.510;2022-08-01T04:05:40;4.72;;;2.33;;
7693;SDS011;3889;48.162;11.510;2022-08-01T04:08:09;2.30;;;2.10;;
7693;SDS011;3889;48.162;11.510;2022-08-01T04:10:37;2.45;;;2.25;;
7693;SDS011;3889;48.162;11.510;2022-08-01T04:13:05;2.40;;;2.20;;
7693;SDS011;3889;48.162;11.510;2022-08-01T04:15:34;2.50;;;2.30;;
7693;SDS011;3889;48.162;11.510;2022-08-01T04:18:03;2.20;;;2.00;;
7693;SDS011;3889;48.162;11.510;2022-08-01T04:20:32;4.47;;;2.57;;
7693;SDS011;3889;48.162;11.510;2022-08-01T04:23:01;2.60;;;2.40;;
7693;SDS011;3889;48.162;11.510;2022-08-01T04:25:31;3.10;;;2.33;;
7693;SDS011;3889;48.162;11.510;2022-08-01T04:28:01;2.72;;;2.40;;
7693;SDS011;3889;48.162;11.510;2022-08-01T04:30:32;4.18;;;2.50;;
7693;SDS011;3889;48.162;11.510;2022-08-01T04:33:04;3.33;;;2.45;;
7693;SDS011;3889;48.162;11.510;2022-08-01T04:35:36;2.50;;;2.30;;
7693;SDS011;3889;48.162;11.510;2022-08-01T04:38:27;3.08;;;2.40;;
7693;SDS011;3889;48.162;11.510;2022-08-01T04:40:57;2.50;;;2.30;;
7693;SDS011;3889;48.162;11.510;2022-08-01T04:43:34;2.60;;;2.28;;
7693;SDS011;3889;48.162;11.510;2022-08-01T04:46:03;3.70;;;2.20;;
7693;SDS011;3889;48.162;11.510;2022-08-01T04:48:34;2.90;;;2.40;;
7693;SDS011;3889;48.162;11.510;2022-08-01T04:51:04;3.67;;;2.60;;
7693;SDS011;3889;48.162;11.510;2022-08-01T04:53:41;2.30;;;2.10;;
7693;SDS011;3889;48.162;11.510;2022-08-01T04:56:10;2.40;;;2.20;;
7693;SDS011;3889;48.162;11.510;2022-08-01T04:58:39;2.80;;;2.60;;
7693;SDS011;3889;48.162;11.510;2022-08-01T05:01:08;3.08;;;2.28;;
7693;SDS011;3889;48.162;11.510;2022-08-01T05:03:38;3.63;;;2.22;;
7693;SDS011;3889;48.162;11.510;2022-08-01T05:06:05;3.08;;;1.98;;
7693;SDS011;3889;48.162;11.510;2022-08-01T05:08:33;3.05;;;2.20;;
7693;SDS011;3889;48.162;11.510;2022-08-01T05:11:02;3.30;;;2.33;;
7693;SDS011;3889;48.162;11.510;2022-08-01T05:13:30;3.05;;;2.40;;
7693;SDS011;3889;48.162;11.510;2022-08-01T05:15:58;2.53;;;2.33;;
7693;SDS011;3889;48.162;11.510;2022-08-01T05:18:26;2.80;;;2.42;;
7693;SDS011;3889;48.162;11.510;2022-08-01T05:20:55;2.67;;;2.20;;
7693;SDS011;3889;48.162;11.510;2022-08-01T05:23:23;2.40;;;2.20;;
7693;SDS011;3889;48.162;11.510;2022-08-01T05:26:08;3.50;;;2.30;;
7693;SDS011;3889;48.162;11.510;2022-08-01T05:28:40;3.00;;;2.20;;
7693;SDS011;3889;48.162;11.510;2022-08-01T05:31:07;3.80;;;2.40;;
7693;SDS011;3889;48.162;11.510;2022-08-01T05:33:35;2.47;;;2.28;;
7693;SDS011;3889;48.162;11.510;2022-08-01T05:36:05;3.35;;;2.40;;
7693;SDS011;3889;48.162;11.510;2022-08-01T05:38:33;2.72;;;2.30;;
7693;SDS011;3889;48.162;11.510;2022-08-01T05:41:01;3.03;;;2.40;;
7693;SDS011;3889;48.162;11.510;2022-08-01T05:43:29;3.58;;;2.33;;
7693;SDS011;3889;48.162;11.510;2022-08-01T05:45:57;2.30;;;2.10;;
7693;SDS011;3889;48.162;11.510;2022-08-01T05:48:25;3.95;;;2.40;;
7693;SDS011;3889;48.162;11.510;2022-08-01T05:50:53;2.50;;;2.30;;
7693;SDS011;3889;48.162;11.510;2022-08-01T05:53:25;3.08;;;2.33;;
7693;SDS011;3889;48.162;11.510;2022-08-01T05:55:53;2.50;;;1.93;;
7693;SDS011;3889;48.162;11.510;2022-08-01T05:58:21;3.03;;;2.28;;
7693;SDS011;3889;48.162;11.510;2022-08-01T06:00:49;2.40;;;2.20;;
7693;SDS011;3889;48.162;11.510;2022-08-01T06:03:17;2.47;;;2.10;;
7693;SDS011;3889;48.162;11.510;2022-08-01T06:05:45;3.07;;;2.50;;
7693;SDS011;3889;48.162;11.510;2022-08-01T06:08:13;5.13;;;2.55;;
7693;SDS011;3889;48.162;11.510;2022-08-01T06:10:43;2.28;;;2.08;;
7693;SDS011;3889;48.162;11.510;2022-08-01T06:13:10;3.00;;;2.35;;
7693;SDS011;3889;48.162;11.510;2022-08-01T06:15:38;2.72;;;2.30;;
7693;SDS011;3889;48.162;11.510;2022-08-01T06:18:06;4.07;;;2.33;;
7693;SDS011;3889;48.162;11.510;2022-08-01T06:20:34;2.45;;;2.00;;
7693;SDS011;3889;48.162;11.510;2022-08-01T06:23:02;3.28;;;2.70;;
7693;SDS011;3889;48.162;11.510;2022-08-01T06:25:53;6.43;;;3.28;;
7693;SDS011;3889;48.162;11.510;2022-08-01T06:28:21;3.60;;;2.50;;
7693;SDS011;3889;48.162;11.510;2022-08-01T06:30:49;3.30;;;2.50;;
7693;SDS011;3889;48.162;11.510;2022-08-01T06:33:17;2.50;;;2.30;;
7693;SDS011;3889;48.162;11.510;2022-08-01T06:35:45;3.70;;;2.60;;
7693;SDS011;3889;48.162;11.510;2022-08-01T06:38:14;3.58;;;2.30;;
7693;SDS011;3889;48.162;11.510;2022-08-01T06:40:42;2.88;;;2.60;;
7693;SDS011;3889;48.162;11.510;2022-08-01T06:43:11;2.50;;;2.30;;
7693;SDS011;3889;48.162;11.510;2022-08-01T06:45:39;2.60;;;2.30;;
7693;SDS011;3889;48.162;11.510;2022-08-01T06:48:07;2.60;;;2.40;;
7693;SDS011;3889;48.162;11.510;2022-08-01T06:50:35;3.00;;;2.45;;
7693;SDS011;3889;48.162;11.510;2022-08-01T06:53:03;2.50;;;2.30;;
7693;SDS011;3889;48.162;11.510;2022-08-01T06:55:31;2.80;;;2.60;;
7693;SDS011;3889;48.162;11.510;2022-08-01T06:57:59;5.97;;;4.00;;
7693;SDS011;3889;48.162;11.510;2022-08-01T07:00:28;2.50;;;2.30;;
7693;SDS011;3889;48.162;11.510;2022-08-01T07:02:56;3.70;;;3.05;;
7693;SDS011;3889;48.162;11.510;2022-08-01T07:05:26;2.42;;;2.22;;
7693;SDS011;3889;48.162;11.510;2022-08-01T07:07:54;3.20;;;2.42;;
7693;SDS011;3889;48.162;11.510;2022-08-01T07:10:21;2.57;;;2.37;;
7693;SDS011;3889;48.162;11.510;2022-08-01T07:12:49;2.60;;;2.30;;
7693;SDS011;3889;48.162;11.510;2022-08-01T07:15:17;3.33;;;2.60;;
7693;SDS011;3889;48.162;11.510;2022-08-01T07:17:49;2.88;;;2.60;;
7693;SDS011;3889;48.162;11.510;2022-08-01T07:20:17;2.80;;;2.45;;
7693;SDS011;3889;48.162;11.510;2022-08-01T07:22:45;2.97;;;2.67;;
7693;SDS011;3889;48.162;11.510;2022-08-01T07:25:13;3.47;;;2.70;;
7693;SDS011;3889;48.162;11.510;2022-08-01T07:27:41;3.20;;;2.83;;
7693;SDS011;3889;48.162;11.510;2022-08-01T07:30:09;3.53;;;2.35;;
7693;SDS011;3889;48.162;11.510;2022-08-01T07:32:38;3.75;;;2.45;;
7693;SDS011;3889;48.162;11.510;2022-08-01T07:35:07;3.40;;;2.72;;
7693;SDS011;3889;48.162;11.510;2022-08-01T07:37:36;3.45;;;2.63;;
7693;SDS011;3889;48.162;11.510;2022-08-01T07:40:14;2.83;;;2.60;;
7693;SDS011;3889;48.162;11.510;2022-08-01T07:42:43;2.78;;;2.47;;
7693;SDS011;3889;48.162;11.510;2022-08-01T07:45:11;2.90;;;2.47;;
7693;SDS011;3889;48.162;11.510;2022-08-01T07:47:39;3.40;;;2.70;;
7693;SDS011;3889;48.162;11.510;2022-08-01T07:50:09;2.67;;;2.47;;
7693;SDS011;3889;48.162;11.510;2022-08-01T07:52:38;2.90;;;2.40;;
7693;SDS011;3889;48.162;11.510;2022-08-01T07:55:06;3.10;;;2.60;;
7693;SDS011;3889;48.162;11.510;2022-08-01T07:57:35;4.22;;;3.08;;
7693;SDS011;3889;48.162;11.510;2022-08-01T08:00:04;2.92;;;2.30;;
7693;SDS011;3889;48.162;11.510;2022-08-01T08:02:34;3.10;;;2.80;;
7693;SDS011;3889;48.162;11.510;2022-08-01T08:05:02;2.78;;;2.53;;
7693;SDS011;3889;48.162;11.510;2022-08-01T08:07:32;2.90;;;2.60;;
7693;SDS011;3889;48.162;11.510;2022-08-01T08:10:00;3.55;;;2.72;;
7693;SDS011;3889;48.162;11.510;2022-08-01T08:12:28;3.13;;;2.60;;
7693;SDS011;3889;48.162;11.510;2022-08-01T08:14:56;2.58;;;2.38;;
7693;SDS011;3889;48.162;11.510;2022-08-01T08:17:26;3.45;;;2.58;;
7693;SDS011;3889;48.162;11.510;2022-08-01T08:20:01;2.85;;;2.45;;
7693;SDS011;3889;48.162;11.510;2022-08-01T08:22:35;2.75;;;2.50;;
7693;SDS011;3889;48.162;11.510;2022-08-01T08:25:04;4.35;;;2.53;;
7693;SDS011;3889;48.162;11.510;2022-08-01T08:27:33;3.08;;;2.70;;
7693;SDS011;3889;48.162;11.510;2022-08-01T08:30:03;2.10;;;2.00;;
7693;SDS011;3889;48.162;11.510;2022-08-01T08:32:33;4.03;;;2.83;;
7693;SDS011;3889;48.162;11.510;2022-08-01T08:35:01;4.28;;;2.65;;
7693;SDS011;3889;48.162;11.510;2022-08-01T08:37:30;2.83;;;2.63;;
7693;SDS011;3889;48.162;11.510;2022-08-01T08:40:06;3.28;;;2.67;;
7693;SDS011;3889;48.162;11.510;2022-08-01T08:42:35;4.45;;;2.40;;
7693;SDS011;3889;48.162;11.510;2022-08-01T08:45:05;3.17;;;2.70;;
7693;SDS011;3889;48.162;11.510;2022-08-01T08:47:37;3.58;;;2.90;;
7693;SDS011;3889;48.162;11.510;2022-08-01T08:50:06;2.78;;;2.42;;
7693;SDS011;3889;48.162;11.510;2022-08-01T08:52:35;2.60;;;2.33;;
7693;SDS011;3889;48.162;11.510;2022-08-01T08:55:08;2.60;;;2.40;;
7693;SDS011;3889;48.162;11.510;2022-08-01T08:57:38;3.00;;;2.35;;
7693;SDS011;3889;48.162;11.510;2022-08-01T09:00:07;3.20;;;2.50;;
7693;SDS011;3889;48.162;11.510;2022-08-01T09:02:39;2.63;;;2.17;;
7693;SDS011;3889;48.162;11.510;2022-08-01T09:05:08;2.63;;;2.23;;
7693;SDS011;3889;48.162;11.510;2022-08-01T09:07:44;4.43;;;2.35;;
7693;SDS011;3889;48.162;11.510;2022-08-01T09:10:13;2.65;;;2.45;;
7693;SDS011;3889;48.162;11.510;2022-08-01T09:15:38;2.80;;;2.40;;
7693;SDS011;3889;48.162;11.510;2022-08-01T09:18:26;2.63;;;2.10;;
7693;SDS011;3889;48.162;11.510;2022-08-01T09:21:09;2.30;;;2.10;;
7693;SDS011;3889;48.162;11.510;2022-08-01T09:23:41;2.40;;;2.20;;
7693;SDS011;3889;48.162;11.510;2022-08-01T09:26:21;2.53;;;2.20;;
7693;SDS011;3889;48.162;11.510;2022-08-01T09:28:57;3.10;;;2.00;;
7693;SDS011;3889;48.162;11.510;2022-08-01T09:31:26;2.10;;;1.90;;
7693;SDS011;3889;48.162;11.510;2022-08-01T09:34:03;1.88;;;1.70;;
7693;SDS011;3889;48.162;11.510;2022-08-01T09:36:43;3.10;;;1.90;;
7693;SDS011;3889;48.162;11.510;2022-08-01T09:39:14;2.65;;;1.90;;
7693;SDS011;3889;48.162;11.510;2022-08-01T09:41:44;2.22;;;1.85;;
7693;SDS011;3889;48.162;11.510;2022-08-01T09:44:12;2.97;;;1.70;;
7693;SDS011;3889;48.162;11.510;2022-08-01T09:46:58;2.50;;;1.70;;
7693;SDS011;3889;48.162;11.510;2022-08-01T09:49:33;1.70;;;1.60;;
7693;SDS011;3889;48.162;11.510;2022-08-01T09:52:19;5.40;;;1.83;;
7693;SDS011;3889;48.162;11.510;2022-08-01T09:54:53;2.22;;;1.90;;
7693;SDS011;3889;48.162;11.510;2022-08-01T09:57:23;1.75;;;1.55;;
7693;SDS011;3889;48.162;11.510;2022-08-01T09:59:52;1.70;;;1.60;;
7693;SDS011;3889;48.162;11.510;2022-08-01T10:02:29;2.28;;;1.75;;
7693;SDS011;3889;48.162;11.510;2022-08-01T10:05:00;2.17;;;1.80;;
7693;SDS011;3889;48.162;11.510;2022-08-01T10:07:34;2.60;;;1.57;;
7693;SDS011;3889;48.162;11.510;2022-08-01T10:10:09;2.00;;;1.60;;
7693;SDS011;3889;48.162;11.510;2022-08-01T10:12:41;2.45;;;1.60;;
7693;SDS011;3889;48.162;11.510;2022-08-01T10:15:11;1.58;;;1.48;;
7693;SDS011;3889;48.162;11.510;2022-08-01T10:17:44;2.30;;;1.63;;
7693;SDS011;3889;48.162;11.510;2022-08-01T10:20:20;2.30;;;1.80;;
7693;SDS011;3889;48.162;11.510;2022-08-01T10:22:57;1.85;;;1.65;;
7693;SDS011;3889;48.162;11.510;2022-08-01T10:25:28;2.40;;;1.55;;
7693;SDS011;3889;48.162;11.510;2022-08-01T10:28:13;2.30;;;1.50;;
7693;SDS011;3889;48.162;11.510;2022-08-01T10:30:49;1.77;;;1.67;;
7693;SDS011;3889;48.162;11.510;2022-08-01T10:33:21;1.88;;;1.58;;
7693;SDS011;3889;48.162;11.510;2022-08-01T10:36:09;2.55;;;1.65;;
7693;SDS011;3889;48.162;11.510;2022-08-01T10:38:37;2.92;;;1.50;;
7693;SDS011;3889;48.162;11.510;2022-08-01T10:41:05;1.60;;;1.50;;
7693;SDS011;3889;48.162;11.510;2022-08-01T10:43:36;1.85;;;1.50;;
7693;SDS011;3889;48.162;11.510;2022-08-01T10:46:03;1.90;;;1.70;;
7693;SDS011;3889;48.162;11.510;2022-08-01T10:48:38;2.28;;;1.65;;
7693;SDS011;3889;48.162;11.510;2022-08-01T10:51:10;2.67;;;1.60;;
7693;SDS011;3889;48.162;11.510;2022-08-01T10:53:46;1.73;;;1.60;;
7693;SDS011;3889;48.162;11.510;2022-08-01T10:56:19;1.70;;;1.60;;
7693;SDS011;3889;48.162;11.510;2022-08-01T10:59:00;2.97;;;1.87;;
7693;SDS011;3889;48.162;11.510;2022-08-01T11:01:33;3.00;;;1.70;;
7693;SDS011;3889;48.162;11.510;2022-08-01T11:04:04;1.63;;;1.52;;
7693;SDS011;3889;48.162;11.510;2022-08-01T11:06:42;2.63;;;1.80;;
7693;SDS011;3889;48.162;11.510;2022-08-01T11:09:21;2.28;;;1.83;;
7693;SDS011;3889;48.162;11.510;2022-08-01T11:12:07;2.40;;;1.80;;
7693;SDS011;3889;48.162;11.510;2022-08-01T11:17:56;1.85;;;1.75;;
7693;SDS011;3889;48.162;11.510;2022-08-01T11:20:27;1.55;;;1.40;;
7693;SDS011;3889;48.162;11.510;2022-08-01T11:26:13;2.30;;;1.30;;
7693;SDS011;3889;48.162;11.510;2022-08-01T11:29:10;3.03;;;1.30;;
7693;SDS011;3889;48.162;11.510;2022-08-01T11:31:49;1.70;;;1.40;;
7693;SDS011;3889;48.162;11.510;2022-08-01T11:34:18;1.58;;;1.48;;
7693;SDS011;3889;48.162;11.510;2022-08-01T11:36:47;2.77;;;1.60;;
7693;SDS011;3889;48.162;11.510;2022-08-01T11:39:25;4.10;;;1.50;;
7693;SDS011;3889;48.162;11.510;2022-08-01T11:41:54;1.73;;;1.38;;
7693;SDS011;3889;48.162;11.510;2022-08-01T11:44:47;2.30;;;1.70;;
7693;SDS011;3889;48.162;11.510;2022-08-01T11:47:17;1.90;;;1.70;;
7693;SDS011;3889;48.162;11.510;2022-08-01T11:49:47;1.88;;;1.40;;
7693;SDS011;3889;48.162;11.510;2022-08-01T11:52:24;1.60;;;1.50;;
7693;SDS011;3889;48.162;11.510;2022-08-01T11:54:54;1.30;;;1.20;;
7693;SDS011;3889;48.162;11.510;2022-08-01T11:57:23;1.80;;;1.48;;
7693;SDS011;3889;48.162;11.510;2022-08-01T12:00:00;1.60;;;1.45;;
7693;SDS011;3889;48.162;11.510;2022-08-01T12:02:35;1.38;;;1.10;;
7693;SDS011;3889;48.162;11.510;2022-08-01T12:05:04;1.45;;;1.35;;
7693;SDS011;3889;48.162;11.510;2022-08-01T12:07:37;3.00;;;1.40;;
7693;SDS011;3889;48.162;11.510;2022-08-01T12:10:07;1.50;;;1.35;;
7693;SDS011;3889;48.162;11.510;2022-08-01T12:12:41;1.45;;;1.17;;
7693;SDS011;3889;48.162;11.510;2022-08-01T12:15:11;2.60;;;1.45;;
7693;SDS011;3889;48.162;11.510;2022-08-01T12:17:42;2.42;;;1.30;;
7693;SDS011;3889;48.162;11.510;2022-08-01T12:20:24;2.08;;;1.13;;
7693;SDS011;3889;48.162;11.510;2022-08-01T12:22:56;2.80;;;1.30;;
7693;SDS011;3889;48.162;11.510;2022-08-01T12:25:25;2.23;;;1.10;;
7693;SDS011;3889;48.162;11.510;2022-08-01T12:27:53;1.00;;;0.95;;
7693;SDS011;3889;48.162;11.510;2022-08-01T12:30:22;2.70;;;1.45;;
7693;SDS011;3889;48.162;11.510;2022-08-01T12:32:52;1.70;;;1.07;;
7693;SDS011;3889;48.162;11.510;2022-08-01T12:35:21;2.38;;;1.30;;
7693;SDS011;3889;48.162;11.510;2022-08-01T12:37:50;1.98;;;1.27;;
7693;SDS011;3889;48.162;11.510;2022-08-01T12:40:20;1.58;;;1.20;;
7693;SDS011;3889;48.162;11.510;2022-08-01T12:42:50;1.45;;;1.00;;
7693;SDS011;3889;48.162;11.510;2022-08-01T12:45:20;1.70;;;0.90;;
7693;SDS011;3889;48.162;11.510;2022-08-01T12:47:50;2.53;;;1.23;;
7693;SDS011;3889;48.162;11.510;2022-08-01T12:50:21;1.25;;;1.15;;
7693;SDS011;3889;48.162;11.510;2022-08-01T12:52:50;1.43;;;1.30;;
7693;SDS011;3889;48.162;11.510;2022-08-01T12:55:19;2.40;;;1.50;;
7693;SDS011;3889;48.162;11.510;2022-08-01T12:57:48;1.50;;;1.20;;
7693;SDS011;3889;48.162;11.510;2022-08-01T13:00:20;2.63;;;1.50;;
7693;SDS011;3889;48.162;11.510;2022-08-01T13:02:50;2.05;;;1.20;;
7693;SDS011;3889;48.162;11.510;2022-08-01T13:05:28;1.17;;;1.02;;
7693;SDS011;3889;48.162;11.510;2022-08-01T13:08:09;1.55;;;1.15;;
7693;SDS011;3889;48.162;11.510;2022-08-01T13:10:38;1.40;;;1.10;;
7693;SDS011;3889;48.162;11.510;2022-08-01T13:13:07;2.10;;;1.10;;
7693;SDS011;3889;48.162;11.510;2022-08-01T13:15:47;5.85;;;1.98;;
7693;SDS011;3889;48.162;11.510;2022-08-01T13:18:25;2.08;;;1.20;;
7693;SDS011;3889;48.162;11.510;2022-08-01T13:26:39;2.80;;;1.58;;
7693;SDS011;3889;48.162;11.510;2022-08-01T13:29:09;1.48;;;1.38;;
7693;SDS011;3889;48.162;11.510;2022-08-01T13:31:39;2.95;;;1.20;;
7693;SDS011;3889;48.162;11.510;2022-08-01T13:34:09;3.22;;;1.50;;
7693;SDS011;3889;48.162;11.510;2022-08-01T13:36:38;1.65;;;1.20;;
7693;SDS011;3889;48.162;11.510;2022-08-01T13:39:14;2.00;;;1.50;;
7693;SDS011;3889;48.162;11.510;2022-08-01T13:41:59;1.20;;;0.97;;
7693;SDS011;3889;48.162;11.510;2022-08-01T13:44:27;2.25;;;1.10;;
7693;SDS011;3889;48.162;11.510;2022-08-01T13:46:55;2.17;;;1.27;;
7693;SDS011;3889;48.162;11.510;2022-08-01T13:49:24;1.60;;;1.00;;
7693;SDS011;3889;48.162;11.510;2022-08-01T13:52:02;2.00;;;1.10;;
7693;SDS011;3889;48.162;11.510;2022-08-01T13:54:34;2.60;;;1.30;;
7693;SDS011;3889;48.162;11.510;2022-08-01T13:57:02;1.38;;;1.00;;
7693;SDS011;3889;48.162;11.510;2022-08-01T13:59:30;2.63;;;1.30;;
7693;SDS011;3889;48.162;11.510;2022-08-01T14:01:58;1.83;;;1.25;;
7693;SDS011;3889;48.162;11.510;2022-08-01T14:04:28;1.33;;;1.00;;
7693;SDS011;3889;48.162;11.510;2022-08-01T14:06:55;1.17;;;1.08;;
7693;SDS011;3889;48.162;11.510;2022-08-01T14:09:27;1.75;;;1.00;;
7693;SDS011;3889;48.162;11.510;2022-08-01T14:11:57;1.80;;;1.10;;
7693;SDS011;3889;48.162;11.510;2022-08-01T14:14:25;1.30;;;1.10;;
7693;SDS011;3889;48.162;11.510;2022-08-01T14:16:53;2.20;;;1.10;;
7693;SDS011;3889;48.162;11.510;2022-08-01T14:19:21;1.60;;;1.25;;
7693;SDS011;3889;48.162;11.510;2022-08-01T14:22:05;2.08;;;1.25;;
7693;SDS011;3889;48.162;11.510;2022-08-01T14:24:33;2.40;;;1.30;;
7693;SDS011;3889;48.162;11.510;2022-08-01T14:27:04;2.95;;;1.10;;
7693;SDS011;3889;48.162;11.510;2022-08-01T14:29:31;1.50;;;1.40;;
7693;SDS011;3889;48.162;11.510;2022-08-01T14:32:19;2.20;;;1.40;;
7693;SDS011;3889;48.162;11.510;2022-08-01T14:34:53;1.40;;;1.30;;
7693;SDS011;3889;48.162;11.510;2022-08-01T14:37:23;2.10;;;1.63;;
7693;SDS011;3889;48.162;11.510;2022-08-01T14:39:56;1.50;;;1.40;;
7693;SDS011;3889;48.162;11.510;2022-08-01T14:42:24;3.60;;;1.35;;
7693;SDS011;3889;48.162;11.510;2022-08-01T14:44:52;1.77;;;1.57;;
7693;SDS011;3889;48.162;11.510;2022-08-01T14:47:20;2.08;;;1.70;;
7693;SDS011;3889;48.162;11.510;2022-08-01T14:49:48;1.77;;;1.23;;
7693;SDS011;3889;48.162;11.510;2022-08-01T14:52:16;2.85;;;1.60;;
7693;SDS011;3889;48.162;11.510;2022-08-01T14:54:46;1.92;;;1.60;;
7693;SDS011;3889;48.162;11.510;2022-08-01T14:57:14;3.10;;;1.60;;
7693;SDS011;3889;48.162;11.510;2022-08-01T14:59:46;3.40;;;1.50;;
7693;SDS011;3889;48.162;11.510;2022-08-01T15:02:14;1.45;;;1.35;;
7693;SDS011;3889;48.162;11.510;2022-08-01T15:04:43;1.63;;;1.52;;
7693;SDS011;3889;48.162;11.510;2022-08-01T15:07:11;2.50;;;1.70;;
7693;SDS011;3889;48.162;11.510;2022-08-01T15:09:39;2.10;;;1.50;;
7693;SDS011;3889;48.162;11.510;2022-08-01T15:12:09;2.50;;;1.70;;
7693;SDS011;3889;48.162;11.510;2022-08-01T15:14:38;2.38;;;1.50;;
7693;SDS011;3889;48.162;11.510;2022-08-01T15:17:16;2.55;;;1.95;;
7693;SDS011;3889;48.162;11.510;2022-08-01T15:19:45;3.65;;;1.65;;
7693;SDS011;3889;48.162;11.510;2022-08-01T15:22:13;2.87;;;1.80;;
7693;SDS011;3889;48.162;11.510;2022-08-01T15:24:42;1.93;;;1.73;;
7693;SDS011;3889;48.162;11.510;2022-08-01T15:27:11;2.95;;;1.80;;
7693;SDS011;3889;48.162;11.510;2022-08-01T15:29:39;2.00;;;1.80;;
7693;SDS011;3889;48.162;11.510;2022-08-01T15:32:08;2.67;;;2.05;;
7693;SDS011;3889;48.162;11.510;2022-08-01T15:34:37;3.13;;;1.80;;
7693;SDS011;3889;48.162;11.510;2022-08-01T15:37:05;2.65;;;1.88;;
7693;SDS011;3889;48.162;11.510;2022-08-01T15:39:34;2.00;;;1.70;;